Time;durP1;ratioP1;P1;durP2;ratioP2;P2;SDS_P1;SDS_P2;PMS_P1;PMS_P2;Temp;Humidity;BMP_temperature;BMP_pressure;BME280_temperature;BME280_humidity;BME280_pressure;Samples;Min_cycle;Max_cycle;Signal;HPM_P1;HPM_P2
2024/02/07 00:01:59;;;;;;;53.03;40.63;;;6.90;99.90;;;;;;5037960;28;20718;-77
2024/02/07 00:04:26;;;;;;;56.33;40.97;;;6.90;99.90;;;;;;5034573;28;20335;-77
2024/02/07 00:06:53;;;;;;;56.50;43.42;;;6.90;99.90;;;;;;5037586;28;20254;-79
2024/02/07 00:09:20;;;;;;;58.28;44.20;;;7.00;99.90;;;;;;5035594;28;20251;-78
2024/02/07 00:11:47;;;;;;;52.72;40.63;;;7.00;99.90;;;;;;5037302;28;20226;-77
2024/02/07 00:14:14;;;;;;;52.00;41.47;;;7.00;99.90;;;;;;5034889;28;20358;-76
2024/02/07 00:16:42;;;;;;;52.17;39.63;;;7.00;99.90;;;;;;5037213;28;20258;-77
2024/02/07 00:19:09;;;;;;;55.35;41.75;;;7.00;99.90;;;;;;5038129;28;20341;-76
2024/02/07 00:21:38;;;;;;;49.67;38.95;;;7.00;99.90;;;;;;5037730;28;20243;-78
2024/02/07 00:24:05;;;;;;;49.65;38.13;;;6.90;99.90;;;;;;5037348;28;20741;-76
2024/02/07 00:26:35;;;;;;;50.40;38.97;;;6.90;99.90;;;;;;5036603;28;20234;-78
2024/02/07 00:29:02;;;;;;;50.53;38.53;;;6.90;99.90;;;;;;5037050;28;20233;-78
2024/02/07 00:31:29;;;;;;;53.30;42.35;;;6.90;99.90;;;;;;5036841;28;20227;-78
2024/02/07 00:33:58;;;;;;;51.25;40.38;;;6.90;99.90;;;;;;5038079;28;20721;-78
2024/02/07 00:36:24;;;;;;;52.45;40.67;;;6.90;99.90;;;;;;5036501;28;20292;-79
2024/02/07 00:38:51;;;;;;;48.97;38.15;;;6.90;99.90;;;;;;5036291;28;20329;-78
2024/02/07 00:41:22;;;;;;;51.88;39.40;;;6.80;99.90;;;;;;5035937;28;20641;-78
2024/02/07 00:43:49;;;;;;;46.30;37.78;;;6.80;99.90;;;;;;5037945;28;20297;-78
2024/02/07 00:46:17;;;;;;;43.97;35.85;;;6.80;99.90;;;;;;5034102;28;20307;-76
2024/02/07 00:48:44;;;;;;;47.10;37.67;;;6.90;99.90;;;;;;5037155;28;20239;-77
2024/02/07 00:51:12;;;;;;;49.28;37.40;;;6.90;99.90;;;;;;5037428;28;20215;-78
2024/02/07 00:53:39;;;;;;;48.78;37.97;;;7.00;99.90;;;;;;5037359;28;20227;-80
2024/02/07 00:56:07;;;;;;;45.40;35.67;;;7.00;99.90;;;;;;5037065;28;20233;-77
2024/02/07 00:58:34;;;;;;;43.85;33.58;;;7.00;99.90;;;;;;5037265;28;20273;-80
2024/02/07 01:01:01;;;;;;;44.55;35.03;;;7.00;99.90;;;;;;5037571;28;20230;-77
2024/02/07 01:03:28;;;;;;;42.50;32.83;;;7.00;99.90;;;;;;5038628;28;20297;-77
2024/02/07 01:05:57;;;;;;;41.67;33.47;;;6.90;99.90;;;;;;5036913;28;20280;-77
2024/02/07 01:08:25;;;;;;;47.20;36.47;;;6.90;99.90;;;;;;5037671;28;20260;-78
2024/02/07 01:10:52;;;;;;;45.95;35.53;;;6.90;99.90;;;;;;5036739;28;20250;-78
2024/02/07 01:13:19;;;;;;;41.80;32.88;;;6.90;99.90;;;;;;5038251;28;20227;-79
2024/02/07 01:15:46;;;;;;;42.25;34.33;;;6.90;99.90;;;;;;5037590;28;21552;-78
2024/02/07 01:18:13;;;;;;;39.83;31.67;;;6.90;99.90;;;;;;5038676;28;20210;-77
2024/02/07 01:20:40;;;;;;;43.85;34.40;;;6.90;99.90;;;;;;5037448;28;20277;-77
2024/02/07 01:23:09;;;;;;;45.05;36.35;;;6.90;99.90;;;;;;5038383;28;20206;-77
2024/02/07 01:25:37;;;;;;;48.63;35.33;;;6.90;99.90;;;;;;5038179;28;20345;-77
2024/02/07 01:28:05;;;;;;;42.30;35.17;;;6.90;99.90;;;;;;5039503;28;20287;-79
2024/02/07 01:30:32;;;;;;;47.08;37.38;;;6.90;99.90;;;;;;5039022;28;20764;-79
2024/02/07 01:32:59;;;;;;;48.65;36.90;;;6.90;99.90;;;;;;5037509;28;20231;-78
2024/02/07 01:35:27;;;;;;;44.40;34.63;;;6.90;99.90;;;;;;5036751;28;20226;-77
2024/02/07 01:37:54;;;;;;;44.97;34.33;;;6.90;99.90;;;;;;5038725;28;20207;-77
2024/02/07 01:40:21;;;;;;;47.10;37.78;;;6.90;99.90;;;;;;5038173;28;21893;-76
2024/02/07 01:42:50;;;;;;;51.67;39.17;;;6.90;99.90;;;;;;5039608;28;20199;-75
2024/02/07 01:45:23;;;;;;;44.38;35.03;;;6.90;99.90;;;;;;5051899;28;20225;-76
2024/02/07 01:47:51;;;;;;;49.72;37.30;;;6.90;99.90;;;;;;5038107;28;20686;-78
2024/02/07 01:50:20;;;;;;;48.60;38.40;;;6.90;99.90;;;;;;5036841;28;20230;-78
2024/02/07 01:52:47;;;;;;;46.90;35.80;;;6.80;99.90;;;;;;5040909;28;20833;-79
2024/02/07 01:55:15;;;;;;;45.72;35.53;;;6.80;99.90;;;;;;5037053;28;20250;-75
2024/02/07 01:57:43;;;;;;;41.75;32.95;;;6.80;99.90;;;;;;5037556;28;20252;-76
2024/02/07 02:00:12;;;;;;;46.25;36.10;;;6.70;99.90;;;;;;5035603;28;20310;-77
2024/02/07 02:02:39;;;;;;;45.85;35.88;;;6.70;99.90;;;;;;5038022;28;20264;-76
2024/02/07 02:05:06;;;;;;;44.95;35.47;;;6.80;99.90;;;;;;5039979;28;20233;-77
2024/02/07 02:07:34;;;;;;;46.63;37.13;;;6.70;99.90;;;;;;5038432;28;20203;-78
2024/02/07 02:10:01;;;;;;;46.13;35.58;;;6.70;99.90;;;;;;5039273;28;20242;-76
2024/02/07 02:12:29;;;;;;;45.50;36.63;;;6.70;99.90;;;;;;5038871;28;20318;-76
2024/02/07 02:14:56;;;;;;;45.67;37.88;;;6.70;99.90;;;;;;5047868;28;20227;-76
2024/02/07 02:17:25;;;;;;;41.22;31.95;;;6.70;99.90;;;;;;5051163;28;20207;-77
2024/02/07 02:19:52;;;;;;;40.35;32.00;;;6.70;99.90;;;;;;5041696;28;20908;-78
2024/02/07 02:22:46;;;;;;;41.75;34.53;;;6.70;99.90;;;;;;5035713;28;20207;-79
2024/02/07 02:25:43;;;;;;;44.30;34.83;;;6.70;99.90;;;;;;5035864;28;20310;-79
2024/02/07 02:28:25;;;;;;;42.45;33.60;;;6.70;99.90;;;;;;5034214;28;20555;-80
2024/02/07 02:30:56;;;;;;;43.13;34.50;;;6.70;99.90;;;;;;5033860;28;20290;-77
2024/02/07 02:33:25;;;;;;;40.40;34.05;;;6.70;99.90;;;;;;5034475;28;20288;-77
2024/02/07 02:35:54;;;;;;;42.95;33.22;;;6.70;99.90;;;;;;5033276;28;20230;-78
2024/02/07 02:38:23;;;;;;;45.10;35.63;;;6.70;99.90;;;;;;5037005;28;20331;-77
2024/02/07 02:40:51;;;;;;;44.83;36.58;;;6.70;99.90;;;;;;5030807;28;20227;-78
2024/02/07 02:43:19;;;;;;;42.53;33.03;;;6.70;99.90;;;;;;5038095;28;20206;-78
2024/02/07 02:45:46;;;;;;;42.30;34.35;;;6.70;99.90;;;;;;5037242;28;20219;-77
2024/02/07 02:48:14;;;;;;;43.45;34.60;;;6.70;99.90;;;;;;5038882;28;20260;-78
2024/02/07 02:50:42;;;;;;;42.35;34.45;;;6.70;99.90;;;;;;5037359;28;20292;-77
2024/02/07 02:53:09;;;;;;;46.35;36.10;;;6.70;99.90;;;;;;5037038;28;20217;-78
2024/02/07 02:55:36;;;;;;;45.13;36.25;;;6.70;99.90;;;;;;5038711;28;20243;-77
2024/02/07 02:58:03;;;;;;;41.22;34.47;;;6.70;99.90;;;;;;5036579;28;20222;-77
2024/02/07 03:00:30;;;;;;;43.20;35.15;;;6.70;99.90;;;;;;5034021;28;20815;-78
2024/02/07 03:02:57;;;;;;;40.67;32.63;;;6.70;99.90;;;;;;5036656;28;20214;-77
2024/02/07 03:05:45;;;;;;;46.28;36.38;;;6.70;99.90;;;;;;5032002;28;20265;-77
2024/02/07 03:08:21;;;;;;;45.65;34.72;;;6.70;99.90;;;;;;5034722;28;20292;-76
2024/02/07 03:10:49;;;;;;;41.40;33.45;;;6.70;99.90;;;;;;5027766;28;20231;-76
2024/02/07 03:13:16;;;;;;;44.50;34.22;;;6.70;99.90;;;;;;5036822;28;20206;-77
2024/02/07 03:15:43;;;;;;;41.70;32.78;;;6.70;99.90;;;;;;5034856;28;20293;-77
2024/02/07 03:18:11;;;;;;;44.00;34.42;;;6.70;99.90;;;;;;5036064;28;20230;-77
2024/02/07 03:20:39;;;;;;;44.70;35.15;;;6.70;99.90;;;;;;5031051;28;21103;-77
2024/02/07 03:23:08;;;;;;;45.85;35.78;;;6.60;99.90;;;;;;5035957;28;21128;-77
2024/02/07 03:25:36;;;;;;;46.05;35.90;;;6.60;99.90;;;;;;5033352;28;20229;-76
2024/02/07 03:28:04;;;;;;;44.90;33.83;;;6.60;99.90;;;;;;5033059;28;20231;-77
2024/02/07 03:30:32;;;;;;;44.55;36.10;;;6.60;99.90;;;;;;5035328;28;20345;-76
2024/02/07 03:32:59;;;;;;;41.60;33.33;;;6.60;99.90;;;;;;5034938;28;20203;-77
2024/02/07 03:35:26;;;;;;;41.20;32.70;;;6.60;99.90;;;;;;5038133;28;20223;-77
2024/02/07 03:37:56;;;;;;;41.30;32.10;;;6.70;99.90;;;;;;5034639;28;20673;-77
2024/02/07 03:40:24;;;;;;;44.22;34.20;;;6.70;99.90;;;;;;5034264;28;20244;-77
2024/02/07 03:42:51;;;;;;;40.80;32.30;;;6.70;99.90;;;;;;5033273;28;20195;-77
2024/02/07 03:45:18;;;;;;;39.03;30.92;;;6.70;99.90;;;;;;5049675;28;20219;-77
2024/02/07 03:47:45;;;;;;;42.00;33.58;;;6.80;99.90;;;;;;5038147;28;20228;-77
2024/02/07 03:50:15;;;;;;;39.05;31.33;;;6.80;99.90;;;;;;5034001;28;20276;-75
2024/02/07 03:52:43;;;;;;;39.92;31.25;;;6.80;99.90;;;;;;5036025;28;20202;-76
2024/02/07 03:55:12;;;;;;;42.08;33.33;;;6.80;99.90;;;;;;5035474;28;20994;-77
2024/02/07 03:57:42;;;;;;;43.63;34.55;;;6.80;99.90;;;;;;5033938;28;20640;-77
2024/02/07 04:00:13;;;;;;;43.95;34.08;;;6.70;99.90;;;;;;5036227;28;20222;-76
2024/02/07 04:02:40;;;;;;;39.25;32.58;;;6.60;99.90;;;;;;5034961;28;20256;-77
2024/02/07 04:05:08;;;;;;;38.08;32.08;;;6.50;99.90;;;;;;5035352;28;20272;-76
2024/02/07 04:07:35;;;;;;;40.10;32.72;;;6.40;99.90;;;;;;5037483;28;20210;-78
2024/02/07 04:10:03;;;;;;;38.10;30.17;;;6.40;99.90;;;;;;5033046;28;20310;-77
2024/02/07 05:17:46;;;;;;;37.55;29.95;;;6.50;99.90;;;;;;5038546;28;20624;-77
2024/02/07 05:20:13;;;;;;;38.30;30.65;;;6.50;99.90;;;;;;5035335;28;20643;-77
2024/02/07 05:22:40;;;;;;;36.70;29.02;;;6.50;99.90;;;;;;5035851;28;20226;-76
2024/02/07 05:25:08;;;;;;;37.75;30.63;;;6.50;99.90;;;;;;5040369;28;20222;-76
2024/02/07 05:27:35;;;;;;;38.42;30.67;;;6.50;99.90;;;;;;5038275;28;20203;-76
2024/02/07 05:30:02;;;;;;;38.72;30.48;;;6.50;99.90;;;;;;5040015;28;20332;-76
2024/02/07 05:32:29;;;;;;;39.45;32.15;;;6.50;99.90;;;;;;5039286;28;20266;-76
2024/02/07 05:34:58;;;;;;;37.80;30.08;;;6.40;99.90;;;;;;5038970;28;20343;-76
2024/02/07 05:37:25;;;;;;;34.15;28.45;;;6.40;99.90;;;;;;5040250;28;20309;-75
2024/02/07 05:39:52;;;;;;;37.63;29.80;;;6.40;99.90;;;;;;5037806;28;20253;-75
2024/02/07 05:42:19;;;;;;;38.22;29.95;;;6.40;99.90;;;;;;5043326;28;20253;-76
2024/02/07 05:44:48;;;;;;;38.47;30.35;;;6.40;99.90;;;;;;5050642;28;20234;-77
2024/02/07 05:47:15;;;;;;;36.25;30.10;;;6.40;99.90;;;;;;5038451;28;20199;-77
2024/02/07 05:49:43;;;;;;;38.42;30.30;;;6.40;99.90;;;;;;5036152;28;20292;-77
2024/02/07 05:52:12;;;;;;;40.03;30.92;;;6.40;99.90;;;;;;5039390;28;20238;-75
2024/02/07 05:54:39;;;;;;;42.15;32.67;;;6.40;99.90;;;;;;5038624;28;20916;-76
2024/02/07 05:57:08;;;;;;;40.08;32.20;;;6.40;99.90;;;;;;5037157;28;20246;-76
2024/02/07 05:59:35;;;;;;;38.65;30.17;;;6.40;99.90;;;;;;5033827;28;20222;-75
2024/02/07 06:02:04;;;;;;;37.83;30.98;;;6.40;99.90;;;;;;5034896;28;20710;-76
2024/02/07 06:04:34;;;;;;;37.72;30.30;;;6.40;99.90;;;;;;5036540;28;20226;-77
2024/02/07 06:07:01;;;;;;;40.50;31.42;;;6.40;99.90;;;;;;5037613;28;20285;-76
2024/02/07 06:09:29;;;;;;;43.75;34.33;;;6.40;99.90;;;;;;5035410;28;20242;-76
2024/02/07 06:11:56;;;;;;;41.53;31.38;;;6.40;99.90;;;;;;5036092;28;20249;-76
2024/02/07 06:14:23;;;;;;;38.80;29.35;;;6.30;99.90;;;;;;5036362;28;20242;-76
2024/02/07 06:16:50;;;;;;;38.60;30.70;;;6.30;99.90;;;;;;5037512;28;20309;-76
2024/02/07 06:19:18;;;;;;;38.53;30.00;;;6.40;99.90;;;;;;5036043;28;20818;-76
2024/02/07 06:21:45;;;;;;;35.70;29.02;;;6.40;99.90;;;;;;5034696;28;20219;-77
2024/02/07 06:24:12;;;;;;;37.72;31.30;;;6.40;99.90;;;;;;5032700;28;20235;-76
2024/02/07 06:26:40;;;;;;;37.53;31.27;;;6.40;99.90;;;;;;5035423;28;21200;-77
2024/02/07 06:29:07;;;;;;;36.30;27.83;;;6.40;99.90;;;;;;5035042;28;20779;-75
2024/02/07 06:31:35;;;;;;;35.22;28.50;;;6.30;99.90;;;;;;5035773;28;20246;-76
2024/02/07 06:34:01;;;;;;;35.95;26.67;;;6.30;99.90;;;;;;5037478;28;20214;-76
2024/02/07 06:36:28;;;;;;;34.88;29.00;;;6.30;99.90;;;;;;5038454;28;20320;-76
2024/02/07 06:38:55;;;;;;;35.80;27.92;;;6.30;99.90;;;;;;5033571;28;20199;-76
2024/02/07 06:41:23;;;;;;;43.30;33.47;;;6.30;99.90;;;;;;5037166;28;20320;-75
2024/02/07 06:43:51;;;;;;;38.40;30.60;;;6.30;99.90;;;;;;5039563;28;20234;-76
2024/02/07 06:46:18;;;;;;;36.45;28.77;;;6.30;99.90;;;;;;5028110;28;20246;-78
2024/02/07 06:48:45;;;;;;;39.63;31.23;;;6.30;99.90;;;;;;5031566;28;20264;-77
2024/02/07 06:51:12;;;;;;;38.65;29.58;;;6.30;99.90;;;;;;5033023;28;21000;-76
2024/02/07 06:53:39;;;;;;;34.55;28.50;;;6.20;99.90;;;;;;5033576;28;20196;-78
2024/02/07 06:56:07;;;;;;;37.65;30.10;;;6.20;99.90;;;;;;5034015;28;20296;-79
2024/02/07 06:58:34;;;;;;;36.15;28.23;;;6.20;99.90;;;;;;5034997;28;20199;-77
2024/02/07 07:01:02;;;;;;;45.05;32.63;;;6.20;99.90;;;;;;5030595;28;20276;-77
2024/02/07 07:03:30;;;;;;;41.03;31.23;;;6.20;99.90;;;;;;5033225;28;20207;-77
2024/02/07 07:05:58;;;;;;;33.30;27.33;;;6.20;99.90;;;;;;5031157;28;20273;-76
2024/02/07 07:08:25;;;;;;;34.45;28.67;;;6.10;99.90;;;;;;5032094;28;20226;-77
2024/02/07 07:10:52;;;;;;;34.55;28.42;;;6.10;99.90;;;;;;5030928;28;20721;-78
2024/02/07 07:13:19;;;;;;;31.17;26.50;;;6.20;99.90;;;;;;5034095;28;20858;-75
2024/02/07 07:15:45;;;;;;;31.35;26.83;;;6.20;99.90;;;;;;5032889;28;20246;-78
2024/02/07 07:18:14;;;;;;;32.70;27.15;;;6.20;99.90;;;;;;5030048;28;20198;-76
2024/02/07 07:20:41;;;;;;;32.40;26.85;;;6.20;99.90;;;;;;5033126;28;20821;-77
2024/02/07 07:23:08;;;;;;;32.78;26.52;;;6.20;99.90;;;;;;5033423;28;20234;-79
2024/02/07 07:25:35;;;;;;;34.22;26.85;;;6.20;99.90;;;;;;5031277;28;20689;-77
2024/02/07 07:28:01;;;;;;;33.25;26.88;;;6.20;99.90;;;;;;5029166;28;20207;-77
2024/02/07 07:30:28;;;;;;;31.20;26.63;;;6.20;99.90;;;;;;5030918;28;20234;-80
2024/02/07 07:32:55;;;;;;;31.90;26.35;;;6.20;99.90;;;;;;5029931;28;20199;-79
2024/02/07 07:35:24;;;;;;;37.17;29.70;;;6.20;99.90;;;;;;5031079;28;20242;-77
2024/02/07 07:37:51;;;;;;;34.83;29.05;;;6.10;99.90;;;;;;5032223;28;20270;-78
2024/02/07 07:40:19;;;;;;;35.97;28.02;;;6.10;99.90;;;;;;5036320;28;20242;-81
2024/02/07 07:42:46;;;;;;;30.25;24.50;;;6.00;99.90;;;;;;5044662;28;20192;-81
2024/02/07 07:45:13;;;;;;;28.70;23.70;;;6.10;99.90;;;;;;5040783;28;20235;-78
2024/02/07 07:47:40;;;;;;;29.70;24.63;;;6.10;99.90;;;;;;5031901;28;20303;-79
2024/02/07 07:50:07;;;;;;;28.30;23.60;;;6.20;99.90;;;;;;5029126;28;20251;-78
2024/02/07 07:52:36;;;;;;;27.38;22.60;;;6.20;99.90;;;;;;5036039;28;20242;-77
2024/02/07 07:55:03;;;;;;;30.52;24.48;;;6.30;99.90;;;;;;5040051;28;20725;-79
2024/02/07 07:57:30;;;;;;;27.42;23.65;;;6.80;99.90;;;;;;5039394;28;20779;-80
2024/02/07 07:59:57;;;;;;;32.90;25.65;;;7.30;99.90;;;;;;5035700;28;20321;-77
2024/02/07 08:02:24;;;;;;;35.45;28.98;;;7.70;99.90;;;;;;5036568;28;20344;-78
2024/02/07 08:04:51;;;;;;;36.97;29.42;;;8.00;99.90;;;;;;5034552;28;20284;-77
2024/02/07 08:07:18;;;;;;;37.65;28.75;;;8.30;99.90;;;;;;5043408;28;20205;-78
2024/02/07 08:09:47;;;;;;;38.55;30.20;;;9.00;99.90;;;;;;5035027;28;20308;-77
2024/02/07 08:12:14;;;;;;;34.95;29.52;;;9.30;99.90;;;;;;5037142;28;20221;-76
2024/02/07 08:14:41;;;;;;;37.30;32.47;;;9.10;99.90;;;;;;5036346;28;20215;-77
2024/02/07 08:17:08;;;;;;;36.58;30.73;;;8.80;99.90;;;;;;5037332;28;20223;-77
2024/02/07 08:19:35;;;;;;;37.72;30.90;;;8.40;99.90;;;;;;5038791;28;20251;-76
2024/02/07 08:22:03;;;;;;;40.15;31.77;;;8.10;99.90;;;;;;5038019;28;20227;-77
2024/02/07 08:24:30;;;;;;;35.53;29.58;;;7.80;99.90;;;;;;5034801;28;20233;-77
2024/02/07 08:26:58;;;;;;;36.00;28.63;;;7.60;99.90;;;;;;5038164;28;20671;-78
2024/02/07 08:29:26;;;;;;;37.38;29.55;;;7.50;99.90;;;;;;5037793;28;20227;-77
2024/02/07 08:31:53;;;;;;;35.03;27.67;;;7.30;99.90;;;;;;5033593;28;20223;-77
2024/02/07 08:34:20;;;;;;;32.03;27.55;;;7.20;99.90;;;;;;5036401;28;20312;-76
2024/02/07 08:36:47;;;;;;;33.17;26.55;;;7.10;99.90;;;;;;5036367;28;20306;-76
2024/02/07 08:39:14;;;;;;;34.88;26.98;;;7.10;99.90;;;;;;5036292;28;20223;-77
2024/02/07 08:41:41;;;;;;;32.75;27.38;;;7.00;99.90;;;;;;5035072;28;20329;-76
2024/02/07 08:44:10;;;;;;;33.45;27.60;;;7.00;99.90;;;;;;5037377;28;20305;-77
2024/02/07 08:46:37;;;;;;;37.80;28.63;;;6.90;99.90;;;;;;5040183;28;21202;-77
2024/02/07 08:49:04;;;;;;;36.55;28.58;;;6.70;99.90;;;;;;5034426;28;20634;-78
2024/02/07 08:51:31;;;;;;;34.65;27.42;;;6.60;99.90;;;;;;5033743;28;20227;-76
2024/02/07 08:53:58;;;;;;;31.25;26.38;;;6.50;99.90;;;;;;5039547;28;20300;-77
2024/02/07 08:56:25;;;;;;;29.65;25.33;;;6.60;99.90;;;;;;5035510;28;20222;-77
2024/02/07 08:58:52;;;;;;;37.65;29.65;;;6.60;99.90;;;;;;5037230;28;20811;-77
2024/02/07 09:01:21;;;;;;;36.58;28.98;;;6.60;99.90;;;;;;5034219;28;20265;-77
2024/02/07 09:03:48;;;;;;;35.92;26.20;;;6.60;99.90;;;;;;5038581;28;20233;-76
2024/02/07 09:06:15;;;;;;;29.42;25.55;;;6.60;99.90;;;;;;5034581;28;20273;-77
2024/02/07 09:08:41;;;;;;;33.75;27.08;;;6.70;99.90;;;;;;5041629;28;20209;-77
2024/02/07 09:11:08;;;;;;;35.53;28.20;;;6.70;99.90;;;;;;5043079;28;20226;-76
2024/02/07 09:13:35;;;;;;;34.80;27.38;;;6.70;99.90;;;;;;5041509;28;20688;-77
2024/02/07 09:16:02;;;;;;;35.45;29.05;;;6.60;99.90;;;;;;5038410;28;20219;-76
2024/02/07 09:18:32;;;;;;;31.52;25.98;;;6.60;99.90;;;;;;5039189;28;20704;-77
2024/02/07 09:20:59;;;;;;;30.15;24.38;;;6.70;99.90;;;;;;5037728;28;20257;-77
2024/02/07 09:23:26;;;;;;;33.63;27.73;;;6.80;99.90;;;;;;5041222;28;20350;-76
2024/02/07 09:25:53;;;;;;;33.90;28.75;;;6.90;99.90;;;;;;5036839;28;20250;-78
2024/02/07 09:28:20;;;;;;;41.53;30.80;;;7.00;99.90;;;;;;5039282;28;20709;-77
2024/02/07 09:30:47;;;;;;;34.20;28.17;;;7.10;99.90;;;;;;5033643;28;20223;-77
2024/02/07 09:33:15;;;;;;;35.38;28.90;;;7.20;99.90;;;;;;5036751;28;20935;-77
2024/02/07 09:35:43;;;;;;;34.50;28.85;;;7.20;99.90;;;;;;5038711;28;20239;-76
2024/02/07 09:38:10;;;;;;;32.88;29.20;;;7.30;99.90;;;;;;5043146;28;20639;-78
2024/02/07 09:40:37;;;;;;;32.22;26.52;;;7.30;99.90;;;;;;5040601;28;20222;-77
2024/02/07 09:43:05;;;;;;;31.83;25.67;;;7.40;99.90;;;;;;5048626;28;20222;-77
2024/02/07 09:45:35;;;;;;;36.72;29.33;;;7.50;99.90;;;;;;5035133;28;20262;-79
2024/02/07 09:48:13;;;;;;;36.97;29.75;;;7.50;99.90;;;;;;5030980;28;20195;-76
2024/02/07 09:50:41;;;;;;;35.80;29.52;;;7.40;99.90;;;;;;5031845;28;20232;-76
2024/02/07 09:53:11;;;;;;;35.00;28.10;;;7.40;99.90;;;;;;5031763;28;20922;-76
2024/02/07 09:55:38;;;;;;;33.78;27.63;;;7.40;99.90;;;;;;5034457;28;20307;-76
2024/02/07 09:58:08;;;;;;;30.58;26.00;;;7.50;99.90;;;;;;5033662;28;20215;-76
2024/02/07 10:00:35;;;;;;;29.63;24.55;;;7.50;99.90;;;;;;5033473;28;20252;-76
2024/02/07 10:03:07;;;;;;;30.73;25.20;;;7.50;99.90;;;;;;5032695;28;20292;-77
2024/02/07 10:05:35;;;;;;;34.38;27.30;;;7.60;99.90;;;;;;5036601;28;20840;-78
2024/02/07 10:08:02;;;;;;;30.42;25.50;;;7.70;99.90;;;;;;5027931;28;20265;-78
2024/02/07 10:10:32;;;;;;;32.30;26.50;;;7.70;99.90;;;;;;5031650;28;20250;-78
2024/02/07 10:12:59;;;;;;;36.85;29.67;;;7.70;99.90;;;;;;5035496;28;20234;-77
2024/02/07 10:15:27;;;;;;;34.35;27.42;;;7.80;99.90;;;;;;5033009;28;20254;-78
2024/02/07 10:17:54;;;;;;;31.65;27.25;;;7.80;99.90;;;;;;5029849;28;20227;-78
2024/02/07 10:20:21;;;;;;;34.78;28.58;;;7.80;99.90;;;;;;5036122;28;20222;-77
2024/02/07 10:22:48;;;;;;;31.55;25.95;;;7.90;99.90;;;;;;5037357;28;20686;-78
2024/02/07 10:25:16;;;;;;;32.80;26.48;;;8.10;99.90;;;;;;5039282;28;20214;-77
2024/02/07 10:27:44;;;;;;;31.55;26.48;;;8.50;99.90;;;;;;5036994;28;20258;-77
2024/02/07 10:30:13;;;;;;;32.95;28.00;;;8.60;99.90;;;;;;5036738;28;20249;-77
2024/02/07 10:32:45;;;;;;;33.30;27.15;;;8.50;99.90;;;;;;5034594;28;20199;-78
2024/02/07 10:35:12;;;;;;;28.80;23.65;;;8.40;99.90;;;;;;5034571;28;20822;-77
2024/02/07 10:37:40;;;;;;;31.30;26.42;;;8.20;99.90;;;;;;5034596;28;20623;-76
2024/02/07 10:40:08;;;;;;;33.00;26.67;;;8.10;99.90;;;;;;5029475;28;20233;-77
2024/02/07 10:42:35;;;;;;;34.13;25.50;;;8.00;99.90;;;;;;5035036;28;20300;-79
2024/02/07 10:45:08;;;;;;;32.60;27.10;;;8.00;99.90;;;;;;5031919;28;20887;-77
2024/02/07 10:47:36;;;;;;;30.40;25.73;;;8.10;99.90;;;;;;5031527;28;20261;-78
2024/02/07 10:50:04;;;;;;;30.20;26.88;;;8.10;99.90;;;;;;5030770;28;20238;-77
2024/02/07 10:52:31;;;;;;;41.78;33.00;;;8.30;99.90;;;;;;5035420;28;20235;-76
2024/02/07 10:54:59;;;;;;;39.20;29.85;;;8.40;99.90;;;;;;5032149;28;20282;-77
2024/02/07 10:57:31;;;;;;;37.53;29.85;;;8.50;99.90;;;;;;5034984;28;20219;-77
2024/02/07 11:00:00;;;;;;;35.30;27.65;;;8.50;99.90;;;;;;5031355;28;20289;-77
2024/02/07 11:02:29;;;;;;;32.42;26.30;;;8.60;99.90;;;;;;5028351;28;20625;-76
2024/02/07 11:04:56;;;;;;;34.97;28.40;;;8.70;99.90;;;;;;5034603;28;20265;-77
2024/02/07 11:07:23;;;;;;;36.53;28.42;;;8.80;99.90;;;;;;5035006;28;20199;-76
2024/02/07 11:09:50;;;;;;;33.95;27.00;;;9.10;99.90;;;;;;5032825;28;20308;-78
2024/02/07 11:12:17;;;;;;;34.40;29.15;;;9.30;99.90;;;;;;5035485;28;20231;-77
2024/02/07 11:14:45;;;;;;;33.53;28.20;;;9.40;99.90;;;;;;5036261;28;20245;-76
2024/02/07 11:17:13;;;;;;;40.85;32.58;;;9.40;99.90;;;;;;5031908;28;20306;-76
2024/02/07 11:19:42;;;;;;;35.00;29.17;;;9.30;99.90;;;;;;5034211;28;21760;-77
2024/02/07 11:22:15;;;;;;;36.83;29.52;;;9.30;99.90;;;;;;5034325;28;21594;-76
2024/02/07 11:24:43;;;;;;;32.55;27.85;;;9.30;99.90;;;;;;5034849;28;20250;-76
2024/02/07 11:27:10;;;;;;;39.35;29.80;;;9.40;99.90;;;;;;5040792;28;20250;-77
2024/02/07 11:29:37;;;;;;;37.63;31.60;;;9.40;99.90;;;;;;5037331;28;20310;-76
2024/02/07 11:32:05;;;;;;;36.60;29.75;;;9.30;99.90;;;;;;5038156;28;20700;-77
2024/02/07 11:34:36;;;;;;;37.35;30.13;;;9.30;99.90;;;;;;5039187;28;20303;-76
2024/02/07 11:37:08;;;;;;;33.55;27.60;;;9.20;99.90;;;;;;5039307;28;20801;-76
2024/02/07 11:39:39;;;;;;;39.00;30.92;;;9.20;99.90;;;;;;5038494;28;20222;-77
2024/02/07 11:42:14;;;;;;;36.10;28.83;;;9.20;99.90;;;;;;5040780;28;20243;-77
2024/02/07 11:44:55;;;;;;;33.83;26.63;;;9.20;99.90;;;;;;5056811;28;20238;-76
2024/02/07 11:47:26;;;;;;;38.00;30.63;;;9.30;99.90;;;;;;5039929;28;20254;-77
2024/02/07 11:49:58;;;;;;;39.90;31.70;;;9.40;99.90;;;;;;5038921;28;20227;-77
2024/02/07 11:52:31;;;;;;;38.17;28.38;;;9.60;99.90;;;;;;5036780;28;20737;-78
2024/02/07 11:55:02;;;;;;;35.50;30.55;;;9.90;99.90;;;;;;5035393;28;21084;-76
2024/02/07 11:57:31;;;;;;;36.35;28.92;;;10.00;99.90;;;;;;5039160;28;20229;-76
2024/02/07 12:00:00;;;;;;;40.55;32.42;;;10.20;99.90;;;;;;5036330;28;20262;-77
2024/02/07 12:02:28;;;;;;;38.08;31.27;;;10.30;99.90;;;;;;5038154;28;20198;-76
2024/02/07 12:04:55;;;;;;;40.42;31.88;;;10.30;99.90;;;;;;5036863;28;20219;-77
2024/02/07 12:07:22;;;;;;;37.80;31.67;;;10.40;99.90;;;;;;5051371;28;20248;-76
2024/02/07 12:09:51;;;;;;;41.85;33.60;;;10.30;99.90;;;;;;5051650;28;20245;-76
2024/02/07 12:12:18;;;;;;;35.67;29.77;;;10.30;99.90;;;;;;5047839;28;20624;-76
2024/02/07 12:14:47;;;;;;;37.65;31.63;;;10.30;99.90;;;;;;5036823;28;20250;-77
2024/02/07 12:17:15;;;;;;;35.08;29.02;;;10.50;99.90;;;;;;5037875;28;20211;-76
2024/02/07 12:19:44;;;;;;;35.88;29.50;;;10.70;99.90;;;;;;5038521;28;20299;-78
2024/02/07 12:22:19;;;;;;;38.22;30.02;;;10.90;99.90;;;;;;5034657;28;20216;-77
2024/02/07 12:24:46;;;;;;;35.20;30.02;;;10.90;99.90;;;;;;5033124;28;20246;-78
2024/02/07 12:27:15;;;;;;;35.30;29.23;;;10.90;99.90;;;;;;5035781;28;20669;-77
2024/02/07 12:29:49;;;;;;;40.47;30.38;;;10.80;99.90;;;;;;5032687;28;20226;-77
2024/02/07 12:32:16;;;;;;;32.50;28.80;;;10.80;99.90;;;;;;5037837;28;20250;-76
2024/02/07 12:34:44;;;;;;;34.75;29.25;;;10.70;99.90;;;;;;5038031;28;20242;-77
2024/02/07 12:37:13;;;;;;;36.47;28.13;;;10.50;99.90;;;;;;5039570;28;20668;-78
2024/02/07 12:39:40;;;;;;;36.45;29.00;;;10.50;99.90;;;;;;5037064;28;20243;-77
2024/02/07 12:42:16;;;;;;;39.35;29.52;;;10.50;99.90;;;;;;5035998;28;20264;-77
2024/02/07 12:44:43;;;;;;;35.45;29.08;;;10.60;99.90;;;;;;5038410;28;20218;-76
2024/02/07 12:47:11;;;;;;;33.00;27.13;;;10.70;99.90;;;;;;5033223;28;20575;-78
2024/02/07 12:49:38;;;;;;;32.97;27.92;;;10.90;99.90;;;;;;5036003;28;20235;-76
2024/02/07 12:52:07;;;;;;;32.75;28.38;;;10.90;99.90;;;;;;5036647;28;20304;-78
2024/02/07 12:54:34;;;;;;;36.03;29.63;;;10.80;99.90;;;;;;5037744;28;20310;-75
2024/02/07 12:57:00;;;;;;;34.13;28.40;;;10.70;99.90;;;;;;5037830;28;20820;-78
2024/02/07 12:59:32;;;;;;;34.03;26.17;;;10.50;99.90;;;;;;5035213;28;20309;-78
2024/02/07 13:02:02;;;;;;;28.92;24.50;;;10.30;99.90;;;;;;5035925;28;20321;-77
2024/02/07 13:04:29;;;;;;;26.88;23.20;;;10.20;99.90;;;;;;5039249;28;20223;-76
2024/02/07 13:06:56;;;;;;;30.95;25.52;;;10.00;99.90;;;;;;5037402;28;20547;-77
2024/02/07 13:09:23;;;;;;;30.08;24.08;;;9.90;99.90;;;;;;5036379;28;20250;-78
2024/02/07 13:11:50;;;;;;;29.92;24.40;;;10.10;99.90;;;;;;5036974;28;20242;-76
2024/02/07 13:14:17;;;;;;;26.88;23.10;;;10.50;99.90;;;;;;5034122;28;20717;-77
2024/02/07 13:16:46;;;;;;;31.30;24.85;;;11.00;99.90;;;;;;5036764;28;20279;-78
2024/02/07 13:19:13;;;;;;;36.63;30.15;;;11.60;99.90;;;;;;5035467;28;20277;-76
2024/02/07 13:21:41;;;;;;;49.35;36.05;;;12.00;99.90;;;;;;5038804;28;20234;-77
2024/02/07 13:24:14;;;;;;;45.47;36.50;;;12.20;99.90;;;;;;5037177;28;20311;-77
2024/02/07 13:26:41;;;;;;;39.13;32.08;;;12.20;99.90;;;;;;5033912;28;20242;-77
2024/02/07 13:29:10;;;;;;;44.53;33.97;;;12.30;99.90;;;;;;5038070;28;20465;-76
2024/02/07 13:31:37;;;;;;;39.15;32.35;;;12.50;99.90;;;;;;5031585;28;20312;-77
2024/02/07 13:34:11;;;;;;;44.67;34.53;;;12.50;99.90;;;;;;5042347;28;21081;-76
2024/02/07 13:36:38;;;;;;;36.80;31.88;;;12.50;99.90;;;;;;5039246;28;20218;-76
2024/02/07 13:39:06;;;;;;;37.25;30.15;;;12.30;99.90;;;;;;5036888;28;20231;-76
2024/02/07 13:41:33;;;;;;;37.58;29.30;;;12.40;99.90;;;;;;5038822;28;20226;-76
2024/02/07 13:44:01;;;;;;;37.28;30.58;;;12.50;99.90;;;;;;5038477;28;20277;-78
2024/02/07 13:46:28;;;;;;;38.13;30.02;;;12.60;99.90;;;;;;5047518;28;20233;-76